CheckWX is a tool to help pilots better visualize weather data.  It is not intended as a substitute for an official pre-flight weather briefing.

16:58:18 UTC

PLCH TAF
Cassidy International Airport
Banana, Kiribati
TAF PLCH 201127Z 2012/2112 08010KT 9999 FEW019 BKN040 PROB30 TEMPO 2012/2018 5000 SHRA BKN015

Feb-20@
12:00 UTC

Feb-20 @ 12:00 UTC

Feb-21@
12:00 UTC

Feb-21 @ 12:00 UTC

TAF PLCH 201127Z 2012/2112 08010KT 9999 FEW019 BKN040
Wind
  • 080° at 10 KTS
Cloud Levels
  • Few at 1,900' AGL
  • Broken at 4,000' AGL

Feb-20@
12:00 UTC

Feb-20 @ 12:00 UTC

Feb-20@
18:00 UTC

Feb-20 @ 18:00 UTC

PROB30 TEMPO 2012/2018 5000 SHRA BKN015

Temporary - 30% Likelihood

Temporary - 30% Likelihood during this time.

Conditions
Rain
Cloud Levels
  • Broken at 1,500' AGL